Time;durP1;ratioP1;P1;durP2;ratioP2;P2;SDS_P1;SDS_P2;PMS_P1;PMS_P2;Temp;Humidity;BMP_temperature;BMP_pressure;BME280_temperature;BME280_humidity;BME280_pressure;Samples;Min_cycle;Max_cycle;Signal;HPM_P1;HPM_P2
2021/03/03 00:02:19;;;;;;;;;;;;;;;3.36;71.26;99812.05;1667081;86;20117;-65
2021/03/03 00:04:46;;;;;;;;;;;;;;;3.31;71.42;99815.25;1666953;86;21292;-66
2021/03/03 00:07:14;;;;;;;;;;;;;;;3.27;71.51;99818.88;1666981;86;20140;-65
2021/03/03 00:09:43;;;;;;;;;;;;;;;3.21;71.60;99814.53;1666939;86;20165;-65
2021/03/03 00:12:10;;;;;;;;;;;;;;;3.18;71.65;99818.57;1667026;86;20121;-66
2021/03/03 00:14:39;;;;;;;;;;;;;;;3.13;71.70;99814.66;1667003;86;20121;-66
2021/03/03 00:17:06;;;;;;;;;;;;;;;3.09;71.76;99812.98;1645868;86;21216;-65
2021/03/03 00:19:34;;;;;;;;;;;;;;;3.04;71.84;99807.74;1666737;86;20152;-66
2021/03/03 00:22:01;;;;;;;;;;;;;;;3.01;71.97;99812.20;1667049;86;20140;-65
2021/03/03 00:24:30;;;;;;;;;;;;;;;2.97;72.01;99806.08;1666964;86;20160;-66
2021/03/03 00:26:57;;;;;;;;;;;;;;;2.94;72.17;99810.56;1666956;86;20158;-65
2021/03/03 00:29:25;;;;;;;;;;;;;;;2.89;72.24;99813.28;1666913;86;21473;-65
2021/03/03 00:31:52;;;;;;;;;;;;;;;2.83;72.36;99814.24;1666925;86;20187;-66
2021/03/03 00:34:19;;;;;;;;;;;;;;;2.80;72.45;99817.41;1666948;86;20141;-65
2021/03/03 00:36:48;;;;;;;;;;;;;;;2.73;72.54;99816.63;1667006;86;20144;-66
2021/03/03 00:39:15;;;;;;;;;;;;;;;2.68;72.57;99809.16;1666980;86;20121;-64
2021/03/03 00:41:44;;;;;;;;;;;;;;;2.63;72.67;99807.03;1666950;86;21261;-65
2021/03/03 00:44:11;;;;;;;;;;;;;;;2.58;72.73;99808.88;1666912;86;20141;-65
2021/03/03 00:46:41;;;;;;;;;;;;;;;2.52;72.82;99812.05;1667020;86;20161;-65
2021/03/03 00:49:09;;;;;;;;;;;;;;;2.47;72.97;99815.20;1666922;86;20203;-65
2021/03/03 00:51:37;;;;;;;;;;;;;;;2.43;73.14;99811.28;1669448;86;20116;-66
2021/03/03 00:54:04;;;;;;;;;;;;;;;2.37;73.27;99809.61;1671788;86;21432;-65
2021/03/03 00:56:32;;;;;;;;;;;;;;;2.33;73.39;99816.73;1671773;86;20169;-64
2021/03/03 00:59:01;;;;;;;;;;;;;;;2.29;73.54;99819.44;1671760;86;20425;-64
2021/03/03 01:01:33;;;;;;;;;;;;;;;2.23;73.64;99808.91;1671737;86;20491;-65
2021/03/03 01:04:01;;;;;;;;;;;;;;;2.18;73.75;99814.27;1671835;86;20144;-65
2021/03/03 01:06:30;;;;;;;;;;;;;;;2.13;73.80;99802.86;1671587;86;21407;-65
2021/03/03 01:08:59;;;;;;;;;;;;;;;2.11;73.89;99800.23;1671839;86;20160;-65
2021/03/03 01:11:26;;;;;;;;;;;;;;;2.07;73.92;99794.98;1671916;86;20243;-65
2021/03/03 01:13:57;;;;;;;;;;;;;;;2.03;74.09;99798.55;1671773;86;20140;-65
2021/03/03 01:16:26;;;;;;;;;;;;;;;1.98;74.24;99795.50;1671983;86;20140;-65
2021/03/03 01:18:56;;;;;;;;;;;;;;;1.94;74.36;99792.91;1671796;86;21456;-64
2021/03/03 01:21:24;;;;;;;;;;;;;;;1.90;74.38;99797.83;1671769;86;20140;-64
2021/03/03 01:23:55;;;;;;;;;;;;;;;1.84;74.46;99793.46;1671954;86;20140;-66
2021/03/03 01:26:22;;;;;;;;;;;;;;;1.79;74.56;99788.22;1671922;86;20172;-65
2021/03/03 01:28:49;;;;;;;;;;;;;;;1.76;74.65;99794.87;1671935;86;20137;-66
2021/03/03 01:31:20;;;;;;;;;;;;;;;1.72;74.78;99791.84;1671905;86;21217;-65
2021/03/03 01:33:49;;;;;;;;;;;;;;;1.70;75.11;99784.80;1671968;86;20738;-65
2021/03/03 01:36:16;;;;;;;;;;;;;;;1.67;75.33;99787.48;1671914;86;20140;-65
2021/03/03 01:38:44;;;;;;;;;;;;;;;1.65;75.33;99781.33;1671839;86;20156;-65
2021/03/03 01:41:12;;;;;;;;;;;;;;;1.64;75.29;99784.44;1671926;86;20144;-65
2021/03/03 01:43:39;;;;;;;;;;;;;;;1.62;75.43;99779.58;1671996;86;22216;-65
2021/03/03 01:46:08;;;;;;;;;;;;;;;1.59;75.50;99779.61;1671830;86;20120;-64
2021/03/03 01:48:36;;;;;;;;;;;;;;;1.58;75.47;99780.53;1671925;86;20140;-65
2021/03/03 01:51:05;;;;;;;;;;;;;;;1.59;75.57;99780.94;1670843;86;20174;-65
2021/03/03 01:53:33;;;;;;;;;;;;;;;1.57;75.61;99772.14;1667021;86;20168;-66
2021/03/03 01:56:00;;;;;;;;;;;;;;;1.55;75.81;99768.19;1667043;86;21407;-65
2021/03/03 01:58:27;;;;;;;;;;;;;;;1.56;75.87;99762.43;1667010;86;21028;-65
2021/03/03 02:00:58;;;;;;;;;;;;;;;1.56;75.90;99766.41;1667392;86;20144;-65
2021/03/03 02:03:26;;;;;;;;;;;;;;;1.57;75.87;99770.82;1667048;86;20140;-65
2021/03/03 02:05:54;;;;;;;;;;;;;;;1.54;75.91;99761.12;1667087;86;20149;-64
2021/03/03 02:08:37;;;;;;;;;;;;;;;1.56;75.84;99770.38;1667067;86;21213;-64
2021/03/03 02:11:14;;;;;;;;;;;;;;;1.55;75.90;99764.67;1667062;86;20688;-64
2021/03/03 02:13:47;;;;;;;;;;;;;;;1.55;75.97;99771.30;1667109;86;20430;-65
2021/03/03 02:16:16;;;;;;;;;;;;;;;1.51;76.03;99769.10;1666965;86;20165;-65
2021/03/03 02:18:45;;;;;;;;;;;;;;;1.51;76.00;99765.59;1667122;86;20157;-65
2021/03/03 02:21:19;;;;;;;;;;;;;;;1.49;75.96;99772.68;1667076;86;21279;-65
2021/03/03 02:23:54;;;;;;;;;;;;;;;1.44;75.88;99774.05;1667012;86;20145;-65
2021/03/03 02:26:22;;;;;;;;;;;;;;;1.39;75.72;99771.91;1667043;86;20161;-65
2021/03/03 02:28:49;;;;;;;;;;;;;;;1.34;75.66;99771.95;1667005;86;20161;-65
2021/03/03 02:31:23;;;;;;;;;;;;;;;1.30;75.59;99775.96;1667417;86;20188;-65
2021/03/03 02:33:50;;;;;;;;;;;;;;;1.24;75.45;99774.23;1667040;86;21446;-65
2021/03/03 02:36:21;;;;;;;;;;;;;;;1.17;75.43;99768.12;1666912;86;20129;-64
2021/03/03 02:38:49;;;;;;;;;;;;;;;1.10;75.33;99774.81;1646462;86;20179;-65
2021/03/03 02:41:17;;;;;;;;;;;;;;;1.03;75.49;99771.34;1666946;86;20140;-64
2021/03/03 02:43:45;;;;;;;;;;;;;;;0.94;75.68;99772.29;1667076;86;20157;-65
2021/03/03 02:46:15;;;;;;;;;;;;;;;0.88;75.70;99769.69;1667131;86;21258;-65
2021/03/03 02:48:46;;;;;;;;;;;;;;;0.82;75.78;99768.41;1666957;86;20144;-65
2021/03/03 02:51:14;;;;;;;;;;;;;;;0.75;75.88;99775.98;1667526;86;20153;-64
2021/03/03 02:53:41;;;;;;;;;;;;;;;0.69;76.05;99777.80;1671909;86;20161;-65
2021/03/03 02:56:10;;;;;;;;;;;;;;;0.63;76.16;99777.83;1671925;86;20425;-65
2021/03/03 02:58:39;;;;;;;;;;;;;;;0.53;76.17;99775.67;1671846;86;21218;-65
2021/03/03 03:01:08;;;;;;;;;;;;;;;0.49;76.21;99777.02;1671847;86;20157;-65
2021/03/03 03:04:01;;;;;;;;;;;;;;;0.43;76.27;99779.73;1671861;86;20153;-63
2021/03/03 03:06:49;;;;;;;;;;;;;;;0.37;76.42;99776.67;1671823;86;20152;-64
2021/03/03 03:09:34;;;;;;;;;;;;;;;0.29;76.59;99775.39;1671794;86;20148;-64
2021/03/03 03:12:22;;;;;;;;;;;;;;;0.24;76.75;99779.83;1671849;86;20439;-65
2021/03/03 03:15:09;;;;;;;;;;;;;;;0.17;76.86;99774.13;1671845;86;20168;-64
2021/03/03 03:17:37;;;;;;;;;;;;;;;0.11;77.01;99773.73;1671878;86;20144;-65
2021/03/03 03:20:06;;;;;;;;;;;;;;;0.06;77.14;99779.91;1671692;86;20140;-64
2021/03/03 03:22:33;;;;;;;;;;;;;;;0.02;77.36;99776.41;1671908;86;20144;-64
2021/03/03 03:25:06;;;;;;;;;;;;;;;-0.03;77.54;99776.44;1671881;86;21225;-65
2021/03/03 03:27:34;;;;;;;;;;;;;;;-0.07;77.67;99780.41;1671793;86;20653;-65
2021/03/03 03:30:01;;;;;;;;;;;;;;;-0.12;77.71;99778.23;1671792;86;20120;-65
2021/03/03 03:32:29;;;;;;;;;;;;;;;-0.15;77.78;99776.48;1671811;86;20160;-64
2021/03/03 03:34:59;;;;;;;;;;;;;;;-0.19;77.91;99780.00;1671875;86;20144;-64
2021/03/03 03:37:26;;;;;;;;;;;;;;;-0.23;78.03;99780.46;1671828;86;20532;-64
2021/03/03 03:39:54;;;;;;;;;;;;;;;-0.26;78.16;99780.47;1671782;86;20413;-64
2021/03/03 03:42:21;;;;;;;;;;;;;;;-0.29;78.30;99778.30;1671795;86;20148;-64
2021/03/03 03:44:49;;;;;;;;;;;;;;;-0.32;78.39;99771.70;1671774;86;20144;-64
2021/03/03 03:47:18;;;;;;;;;;;;;;;-0.32;78.53;99779.62;1671878;86;20164;-64
2021/03/03 03:49:46;;;;;;;;;;;;;;;-0.37;78.71;99767.30;1671886;86;22227;-65
2021/03/03 03:52:16;;;;;;;;;;;;;;;-0.40;78.81;99765.98;1669770;86;20191;-64
2021/03/03 03:54:50;;;;;;;;;;;;;;;-0.43;78.89;99767.31;1667000;86;20140;-64
2021/03/03 03:57:18;;;;;;;;;;;;;;;-0.44;78.93;99766.90;1667066;86;20976;-64
2021/03/03 03:59:46;;;;;;;;;;;;;;;-0.46;78.99;99762.05;1666957;86;20144;-66
2021/03/03 04:02:15;;;;;;;;;;;;;;;-0.47;79.04;99761.62;1666793;86;39163;-66
2021/03/03 04:04:43;;;;;;;;;;;;;;;-0.51;78.96;99761.19;1666900;86;20212;-65
2021/03/03 04:07:11;;;;;;;;;;;;;;;-0.53;78.97;99761.64;1666925;86;20140;-65
2021/03/03 04:09:38;;;;;;;;;;;;;;;-0.55;79.03;99760.78;1666903;86;20117;-64
2021/03/03 04:12:07;;;;;;;;;;;;;;;-0.59;79.08;99756.38;1667051;86;20145;-64
2021/03/03 04:14:34;;;;;;;;;;;;;;;-0.61;79.22;99752.88;1666915;86;21268;-65
2021/03/03 04:17:02;;;;;;;;;;;;;;;-0.65;79.30;99752.43;1666916;86;20120;-64
2021/03/03 04:19:30;;;;;;;;;;;;;;;-0.68;79.33;99744.06;1666919;86;20140;-64
2021/03/03 04:22:00;;;;;;;;;;;;;;;-0.70;79.40;99759.48;1667001;86;20120;-65
2021/03/03 04:24:28;;;;;;;;;;;;;;;-0.71;79.44;99756.39;1646027;86;20144;-65
2021/03/03 04:26:55;;;;;;;;;;;;;;;-0.74;79.62;99758.17;1667017;86;21399;-65
2021/03/03 04:29:24;;;;;;;;;;;;;;;-0.76;79.77;99756.41;1666848;86;20304;-65
2021/03/03 04:31:51;;;;;;;;;;;;;;;-0.78;79.74;99755.09;1666899;86;20144;-65
2021/03/03 04:34:19;;;;;;;;;;;;;;;-0.78;79.80;99756.41;1666940;86;20161;-65
2021/03/03 04:36:48;;;;;;;;;;;;;;;-0.79;79.97;99753.77;1666963;86;20121;-65
2021/03/03 04:39:15;;;;;;;;;;;;;;;-0.78;79.91;99748.49;1666927;86;21223;-64
2021/03/03 04:41:42;;;;;;;;;;;;;;;-0.80;79.99;99744.98;1667016;86;20168;-64
2021/03/03 04:44:11;;;;;;;;;;;;;;;-0.80;80.06;99744.98;1667072;86;20161;-65
2021/03/03 04:46:39;;;;;;;;;;;;;;;-0.81;80.03;99745.86;1667080;86;20141;-65
2021/03/03 04:49:08;;;;;;;;;;;;;;;-0.81;80.14;99743.22;1667115;86;20157;-64
2021/03/03 04:51:38;;;;;;;;;;;;;;;-0.82;80.19;99742.80;1667040;86;21462;-65
2021/03/03 04:54:05;;;;;;;;;;;;;;;-0.83;80.46;99750.27;1671911;86;20120;-64
2021/03/03 04:56:33;;;;;;;;;;;;;;;-0.83;80.53;99751.58;1671876;86;20243;-66
2021/03/03 04:59:05;;;;;;;;;;;;;;;-0.81;80.58;99753.77;1672034;86;20155;-65
2021/03/03 05:01:34;;;;;;;;;;;;;;;-0.77;80.58;99751.58;1671912;86;20140;-65
2021/03/03 05:04:01;;;;;;;;;;;;;;;-0.74;80.72;99753.34;1671916;86;21225;-65
2021/03/03 05:06:31;;;;;;;;;;;;;;;-0.70;80.88;99755.08;1671922;86;20144;-65
2021/03/03 05:08:58;;;;;;;;;;;;;;;-0.69;80.97;99752.89;1671914;86;20116;-64
2021/03/03 05:11:26;;;;;;;;;;;;;;;-0.64;80.91;99755.52;1671766;86;20156;-64
2021/03/03 05:13:54;;;;;;;;;;;;;;;-0.62;80.83;99761.20;1671986;86;20196;-65
2021/03/03 05:16:21;;;;;;;;;;;;;;;-0.60;80.82;99757.25;1671988;86;21385;-65
2021/03/03 05:18:49;;;;;;;;;;;;;;;-0.60;80.82;99755.92;1671748;86;20140;-64
2021/03/03 05:21:18;;;;;;;;;;;;;;;-0.60;80.72;99754.19;1671936;86;20183;-65
2021/03/03 05:23:45;;;;;;;;;;;;;;;-0.58;80.52;99748.91;1672035;86;20156;-65
2021/03/03 05:26:13;;;;;;;;;;;;;;;-0.58;80.33;99752.86;1671968;86;20156;-68
2021/03/03 05:28:41;;;;;;;;;;;;;;;-0.57;80.37;99755.92;1671916;86;21212;-66
2021/03/03 05:31:08;;;;;;;;;;;;;;;-0.57;80.39;99754.60;1671915;86;20120;-66
2021/03/03 05:33:41;;;;;;;;;;;;;;;-0.57;80.48;99752.86;1670869;86;20497;-66
2021/03/03 05:36:10;;;;;;;;;;;;;;;-0.53;80.53;99756.36;1671760;86;20160;-66
2021/03/03 05:38:39;;;;;;;;;;;;;;;-0.48;80.50;99757.22;1671956;86;20160;-66
2021/03/03 05:41:08;;;;;;;;;;;;;;;-0.44;80.53;99761.62;1671874;86;21379;-65
2021/03/03 05:43:40;;;;;;;;;;;;;;;-0.39;80.49;99762.48;1671821;86;20164;-65
2021/03/03 05:46:07;;;;;;;;;;;;;;;-0.32;80.47;99763.78;1671931;86;20153;-65
2021/03/03 05:48:57;;;;;;;;;;;;;;;-0.27;80.40;99765.53;1671906;86;20120;-66
2021/03/03 05:51:28;;;;;;;;;;;;;;;-0.20;80.36;99767.70;1671767;86;20160;-68
2021/03/03 05:54:00;;;;;;;;;;;;;;;-0.12;80.19;99765.91;1671920;86;21282;-66
2021/03/03 05:56:29;;;;;;;;;;;;;;;-0.06;80.19;99765.02;1671947;86;20165;-66
2021/03/03 05:58:56;;;;;;;;;;;;;;;0.01;80.11;99764.53;1671868;86;20141;-64
2021/03/03 06:01:26;;;;;;;;;;;;;;;0.05;79.96;99768.89;1671794;86;20182;-65
2021/03/03 06:03:57;;;;;;;;;;;;;;;0.12;79.87;99770.19;1670761;86;20160;-66
2021/03/03 06:06:24;;;;;;;;;;;;;;;0.19;79.79;99765.77;1671904;86;21168;-65
2021/03/03 06:08:52;;;;;;;;;;;;;;;0.27;79.71;99769.66;1671958;86;20116;-66
2021/03/03 06:11:22;;;;;;;;;;;;;;;0.33;79.65;99770.95;1671815;86;20120;-66
2021/03/03 06:13:52;;;;;;;;;;;;;;;0.41;79.57;99767.84;1671858;86;20153;-65
2021/03/03 06:16:19;;;;;;;;;;;;;;;0.51;79.38;99772.63;1671929;86;20169;-65
2021/03/03 06:18:47;;;;;;;;;;;;;;;0.61;79.18;99769.01;1671892;86;21388;-65
2021/03/03 06:21:27;;;;;;;;;;;;;;;0.72;78.89;99762.33;1671847;86;20164;-66
2021/03/03 06:24:09;;;;;;;;;;;;;;;0.84;78.68;99761.37;1671943;86;20137;-66
2021/03/03 06:26:58;;;;;;;;;;;;;;;0.98;78.45;99765.20;1671389;86;20161;-68
2021/03/03 06:29:29;;;;;;;;;;;;;;;1.14;78.20;99763.32;1671806;86;20165;-68
2021/03/03 06:32:04;;;;;;;;;;;;;;;1.35;77.94;99757.80;1671808;86;21204;-68
2021/03/03 06:34:33;;;;;;;;;;;;;;;1.59;77.51;99758.43;1669453;86;20176;-70
2021/03/03 06:37:02;;;;;;;;;;;;;;;1.89;77.14;99761.62;1671856;86;20141;-70
2021/03/03 06:39:35;;;;;;;;;;;;;;;2.21;76.61;99760.31;1671777;86;20148;-71
2021/03/03 06:42:06;;;;;;;;;;;;;;;2.56;76.10;99757.64;1671903;86;20152;-70
2021/03/03 06:44:48;;;;;;;;;;;;;;;2.91;75.27;99757.53;1671940;86;21382;-69
2021/03/03 06:47:17;;;;;;;;;;;;;;;3.27;74.60;99755.16;1671853;86;20121;-72
2021/03/03 06:49:46;;;;;;;;;;;;;;;3.65;73.92;99753.55;1671775;85;20141;-70
2021/03/03 06:52:13;;;;;;;;;;;;;;;3.98;72.94;99748.87;1671866;86;20172;-73
2021/03/03 06:54:42;;;;;;;;;;;;;;;4.31;71.99;99744.20;1667078;86;20162;-73
2021/03/03 06:57:14;;;;;;;;;;;;;;;4.62;71.19;99742.15;1667039;86;21376;-71
2021/03/03 06:59:43;;;;;;;;;;;;;;;4.96;70.12;99737.35;1666053;86;20129;-72
2021/03/03 07:02:14;;;;;;;;;;;;;;;5.25;69.38;99736.62;1666965;86;20144;-73
2021/03/03 07:04:52;;;;;;;;;;;;;;;5.55;68.70;99734.02;1664901;86;20125;-71
2021/03/03 07:07:19;;;;;;;;;;;;;;;5.86;67.74;99734.50;1666839;86;20165;-72
2021/03/03 07:09:57;;;;;;;;;;;;;;;6.15;67.14;99744.36;1667112;86;22224;-72
2021/03/03 07:12:29;;;;;;;;;;;;;;;6.45;66.37;99743.88;1666908;86;20192;-73
2021/03/03 07:15:07;;;;;;;;;;;;;;;6.73;65.39;99742.98;1667059;86;20481;-69
2021/03/03 07:17:38;;;;;;;;;;;;;;;7.01;64.76;99742.09;1667042;86;20148;-70
2021/03/03 07:20:14;;;;;;;;;;;;;;;7.29;63.69;99733.16;1667072;86;20506;-68
2021/03/03 07:22:50;;;;;;;;;;;;;;;7.55;62.99;99730.88;1666982;86;21388;-67
2021/03/03 07:25:20;;;;;;;;;;;;;;;7.81;61.82;99735.30;1647541;86;20120;-69
2021/03/03 07:27:48;;;;;;;;;;;;;;;8.04;61.09;99730.88;1667017;86;20153;-69
2021/03/03 07:30:20;;;;;;;;;;;;;;;8.24;60.67;99732.81;1666909;86;20157;-70
2021/03/03 07:32:50;;;;;;;;;;;;;;;8.42;59.89;99729.43;1667034;86;20452;-76
2021/03/03 07:35:19;;;;;;;;;;;;;;;8.60;59.27;99729.19;1667302;86;21827;-71
2021/03/03 07:37:53;;;;;;;;;;;;;;;8.73;58.44;99724.20;1666993;86;20164;-71
2021/03/03 07:40:30;;;;;;;;;;;;;;;8.91;57.44;99730.62;1666995;86;20172;-71
2021/03/03 07:43:01;;;;;;;;;;;;;;;9.06;56.63;99725.56;1666958;86;20142;-71
2021/03/03 07:45:39;;;;;;;;;;;;;;;9.21;56.50;99728.94;1667030;86;20137;-72
2021/03/03 07:48:09;;;;;;;;;;;;;;;9.30;55.82;99721.85;1667065;86;21222;-71
2021/03/03 07:50:39;;;;;;;;;;;;;;;9.44;56.74;99720.37;1666834;86;20121;-71
2021/03/03 07:53:07;;;;;;;;;;;;;;;9.55;56.68;99721.66;1667786;86;20251;-72
2021/03/03 07:55:34;;;;;;;;;;;;;;;9.68;56.03;99725.11;1645219;86;20168;-72
2021/03/03 07:58:03;;;;;;;;;;;;;;;9.81;55.59;99717.41;1671847;86;20161;-72
2021/03/03 08:00:34;;;;;;;;;;;;;;;9.91;55.10;99718.72;1644903;86;21210;-72
2021/03/03 08:03:04;;;;;;;;;;;;;;;10.00;54.24;99722.33;1671694;86;21090;-71
2021/03/03 08:05:36;;;;;;;;;;;;;;;10.08;54.20;99722.84;1670842;86;20420;-72
2021/03/03 08:08:24;;;;;;;;;;;;;;;10.18;54.42;99717.91;1671799;86;20266;-70
2021/03/03 08:11:02;;;;;;;;;;;;;;;10.29;53.84;99715.58;1671855;86;20434;-72
2021/03/03 08:13:36;;;;;;;;;;;;;;;10.42;53.42;99718.61;1671789;86;20128;-71
2021/03/03 08:16:07;;;;;;;;;;;;;;;10.53;52.95;99707.81;1671786;86;20156;-72
2021/03/03 08:18:36;;;;;;;;;;;;;;;10.58;52.61;99705.31;1671857;86;20488;-70
2021/03/03 08:21:11;;;;;;;;;;;;;;;10.64;52.64;99705.47;1671698;86;20144;-71
2021/03/03 08:23:40;;;;;;;;;;;;;;;10.70;52.67;99698.45;1671880;86;20153;-71
2021/03/03 08:26:17;;;;;;;;;;;;;;;10.79;52.15;99700.69;1671884;86;21213;-72
2021/03/03 08:28:52;;;;;;;;;;;;;;;10.85;52.00;99695.02;1669837;86;20220;-71
2021/03/03 08:31:25;;;;;;;;;;;;;;;10.89;52.02;99698.41;1671725;86;20157;-72
2021/03/03 08:33:56;;;;;;;;;;;;;;;10.96;51.83;99686.90;1671849;86;20739;-71
2021/03/03 08:36:29;;;;;;;;;;;;;;;11.01;52.08;99680.81;1671798;86;20168;-71
2021/03/03 08:39:01;;;;;;;;;;;;;;;11.09;51.42;99681.77;1671789;86;21270;-72
2021/03/03 08:41:32;;;;;;;;;;;;;;;11.16;51.18;99677.80;1671674;86;20148;-71
2021/03/03 08:44:05;;;;;;;;;;;;;;;11.25;51.40;99675.13;1671940;86;20413;-72
2021/03/03 08:46:46;;;;;;;;;;;;;;;11.30;50.65;99671.22;1671744;86;20155;-71
2021/03/03 08:49:23;;;;;;;;;;;;;;;11.37;50.81;99669.11;1671889;86;20128;-71
2021/03/03 08:51:50;;;;;;;;;;;;;;;11.46;50.86;99670.42;1671738;86;21124;-72
2021/03/03 08:54:20;;;;;;;;;;;;;;;11.51;50.22;99667.90;1671659;86;20160;-71
2021/03/03 08:56:53;;;;;;;;;;;;;;;11.57;50.08;99666.23;1671868;86;20481;-71
2021/03/03 08:59:40;;;;;;;;;;;;;;;11.61;50.36;99666.07;1671764;86;20166;-72
2021/03/03 09:02:18;;;;;;;;;;;;;;;11.66;50.28;99662.64;1671767;86;20157;-72
2021/03/03 09:04:49;;;;;;;;;;;;;;;11.76;50.39;99665.22;1671844;86;21279;-71
2021/03/03 09:07:18;;;;;;;;;;;;;;;11.79;50.10;99658.81;1671724;86;20153;-71
2021/03/03 09:09:51;;;;;;;;;;;;;;;11.78;49.39;99657.95;1671752;86;20143;-72
2021/03/03 09:12:24;;;;;;;;;;;;;;;11.79;49.20;99659.67;1671750;86;20140;-72
2021/03/03 09:14:52;;;;;;;;;;;;;;;11.81;48.96;99659.59;1671824;86;20160;-72
2021/03/03 09:17:24;;;;;;;;;;;;;;;11.83;50.29;99661.25;1671883;86;22135;-72
2021/03/03 09:19:52;;;;;;;;;;;;;;;11.84;50.19;99661.66;1671735;86;20140;-73
2021/03/03 09:22:23;;;;;;;;;;;;;;;11.82;49.56;99651.43;1645062;86;20136;-72
2021/03/03 09:24:55;;;;;;;;;;;;;;;11.86;49.73;99655.70;1671787;86;20872;-72
2021/03/03 09:27:23;;;;;;;;;;;;;;;11.86;49.14;99651.67;1670405;86;20144;-71
2021/03/03 09:29:50;;;;;;;;;;;;;;;11.83;49.11;99658.56;1671880;86;21393;-71
2021/03/03 09:32:22;;;;;;;;;;;;;;;11.85;49.12;99659.34;1671847;86;20156;-72
2021/03/03 09:34:53;;;;;;;;;;;;;;;11.81;48.24;99656.44;1671982;86;20137;-72
2021/03/03 09:37:22;;;;;;;;;;;;;;;11.80;48.56;99649.31;1671903;86;20140;-71
2021/03/03 09:39:56;;;;;;;;;;;;;;;11.80;48.89;99656.04;1671917;86;20164;-71
2021/03/03 09:42:26;;;;;;;;;;;;;;;11.77;48.08;99653.52;1672008;86;21285;-72
2021/03/03 09:44:54;;;;;;;;;;;;;;;11.80;47.76;99653.34;1671847;86;20169;-72
2021/03/03 09:47:35;;;;;;;;;;;;;;;11.76;47.36;99653.11;1672049;86;20417;-71
2021/03/03 09:50:08;;;;;;;;;;;;;;;11.67;46.82;99647.77;1671792;86;20168;-71
2021/03/03 09:52:38;;;;;;;;;;;;;;;11.64;47.58;99646.58;1642682;87;20155;-71
2021/03/03 09:55:10;;;;;;;;;;;;;;;11.61;47.46;99652.62;1674972;84;21228;-71
2021/03/03 09:57:38;;;;;;;;;;;;;;;11.57;47.52;99646.50;1686890;85;20159;-72
2021/03/03 10:00:10;;;;;;;;;;;;;;;11.52;47.35;99651.27;1686817;85;20142;-71
2021/03/03 10:02:42;;;;;;;;;;;;;;;11.41;46.23;99634.84;1686840;85;20396;-71
2021/03/03 10:05:24;;;;;;;;;;;;;;;11.42;46.75;99642.83;1686890;84;20159;-71
2021/03/03 10:07:58;;;;;;;;;;;;;;;11.41;48.15;99638.38;1686884;85;21430;-73
2021/03/03 10:10:26;;;;;;;;;;;;;;;11.38;47.48;99631.82;1686761;85;20150;-71
2021/03/03 10:12:56;;;;;;;;;;;;;;;11.34;47.46;99634.30;1686818;85;20193;-72
2021/03/03 10:15:25;;;;;;;;;;;;;;;11.30;47.17;99628.19;1686849;85;20142;-71
2021/03/03 10:17:53;;;;;;;;;;;;;;;11.33;46.96;99629.86;1686748;85;20169;-72
2021/03/03 10:20:36;;;;;;;;;;;;;;;11.34;46.66;99626.23;1686801;85;21280;-71
2021/03/03 10:23:14;;;;;;;;;;;;;;;11.33;47.71;99617.75;1686893;85;20159;-70
2021/03/03 10:25:53;;;;;;;;;;;;;;;11.31;46.72;99612.94;1686543;85;20206;-71
2021/03/03 10:28:25;;;;;;;;;;;;;;;11.28;46.98;99608.58;1682317;85;20155;-70
2021/03/03 10:30:56;;;;;;;;;;;;;;;11.24;47.40;99603.45;1686808;85;20174;-71
2021/03/03 10:33:27;;;;;;;;;;;;;;;11.16;46.71;99602.05;1686896;85;21387;-71
2021/03/03 10:35:58;;;;;;;;;;;;;;;11.17;47.34;99589.46;1686720;85;20443;-71
2021/03/03 10:38:27;;;;;;;;;;;;;;;11.18;47.78;99592.07;1686783;85;20146;-71
2021/03/03 10:40:56;;;;;;;;;;;;;;;11.20;48.20;99583.92;1686746;85;20162;-71
2021/03/03 10:43:24;;;;;;;;;;;;;;;11.21;49.08;99582.50;1686964;85;20715;-72
2021/03/03 10:46:09;;;;;;;;;;;;;;;11.19;47.69;99573.66;1686857;85;21055;-71
2021/03/03 10:48:37;;;;;;;;;;;;;;;11.21;48.46;99570.88;1686816;85;20123;-71
2021/03/03 10:51:06;;;;;;;;;;;;;;;11.19;49.05;99576.34;1686720;85;20190;-72
2021/03/03 10:53:54;;;;;;;;;;;;;;;11.22;50.57;99571.25;1686907;85;20594;-72
2021/03/03 10:56:34;;;;;;;;;;;;;;;11.21;49.30;99566.84;1691316;85;20139;-72
2021/03/03 10:59:06;;;;;;;;;;;;;;;11.21;50.05;99560.98;1691273;85;21465;-71
2021/03/03 11:01:43;;;;;;;;;;;;;;;11.21;49.72;99561.47;1690937;84;20223;-71
2021/03/03 11:04:11;;;;;;;;;;;;;;;11.20;49.14;99553.86;1691397;85;20158;-72
2021/03/03 11:06:38;;;;;;;;;;;;;;;11.20;49.01;99551.66;1691208;85;20126;-70
2021/03/03 11:09:07;;;;;;;;;;;;;;;11.18;49.25;99546.36;1691282;85;20139;-70
2021/03/03 11:11:57;;;;;;;;;;;;;;;11.17;48.99;99543.27;1691299;85;21211;-75
2021/03/03 11:14:28;;;;;;;;;;;;;;;11.18;49.78;99546.36;1691287;85;20122;-70
2021/03/03 11:16:57;;;;;;;;;;;;;;;11.15;48.84;99529.53;1691288;85;20143;-69
2021/03/03 11:19:28;;;;;;;;;;;;;;;11.17;49.46;99531.65;1691317;85;21041;-71
2021/03/03 11:21:58;;;;;;;;;;;;;;;11.17;50.31;99528.96;1690926;85;20142;-70
2021/03/03 11:24:25;;;;;;;;;;;;;;;11.17;50.02;99523.09;1691251;84;21295;-70
2021/03/03 11:26:53;;;;;;;;;;;;;;;11.18;50.15;99516.78;1691225;85;20154;-70
2021/03/03 11:29:21;;;;;;;;;;;;;;;11.16;50.13;99510.63;1691242;85;20139;-70
2021/03/03 11:31:51;;;;;;;;;;;;;;;11.16;50.49;99508.39;1691232;85;20229;-70
2021/03/03 11:34:19;;;;;;;;;;;;;;;11.15;49.62;99502.64;1691304;85;20139;-70
2021/03/03 11:36:45;;;;;;;;;;;;;;;11.16;50.01;99498.52;1691237;85;21222;-71
2021/03/03 11:39:13;;;;;;;;;;;;;;;11.17;50.71;99489.48;1691186;84;20173;-71
2021/03/03 11:41:40;;;;;;;;;;;;;;;11.15;50.51;99491.40;1691309;85;20115;-70
2021/03/03 11:44:07;;;;;;;;;;;;;;;11.15;50.21;99481.98;1691208;85;20166;-71
2021/03/03 11:46:36;;;;;;;;;;;;;;;11.16;50.93;99481.50;1691256;85;20143;-70
2021/03/03 11:49:04;;;;;;;;;;;;;;;11.17;51.92;99484.11;1691260;84;21216;-70
2021/03/03 11:51:31;;;;;;;;;;;;;;;11.14;51.91;99476.20;1691108;85;20138;-70
2021/03/03 11:54:02;;;;;;;;;;;;;;;11.14;52.27;99476.20;1689229;85;20463;-70
2021/03/03 11:56:29;;;;;;;;;;;;;;;11.10;52.17;99469.73;1674596;85;20444;-70
2021/03/03 11:58:57;;;;;;;;;;;;;;;11.04;52.01;99465.58;1673803;85;20159;-70
2021/03/03 12:01:26;;;;;;;;;;;;;;;11.02;52.57;99470.14;1673749;85;21217;-70
2021/03/03 12:03:53;;;;;;;;;;;;;;;11.00;53.42;99463.99;1673786;85;20115;-71
2021/03/03 12:06:22;;;;;;;;;;;;;;;10.98;54.50;99468.11;1673775;85;20119;-70
2021/03/03 12:08:53;;;;;;;;;;;;;;;10.94;52.70;99460.29;1673791;85;20211;-70
2021/03/03 12:11:22;;;;;;;;;;;;;;;10.92;53.63;99460.86;1673774;85;20139;-70
2021/03/03 12:13:49;;;;;;;;;;;;;;;10.88;53.58;99459.27;1673770;85;21227;-71
2021/03/03 12:16:17;;;;;;;;;;;;;;;10.87;53.50;99452.19;1673710;85;20135;-70
2021/03/03 12:18:44;;;;;;;;;;;;;;;10.85;54.25;99457.64;1673793;85;20508;-71
2021/03/03 12:21:11;;;;;;;;;;;;;;;10.81;54.13;99446.16;1673744;85;20144;-71
2021/03/03 12:23:41;;;;;;;;;;;;;;;10.78;54.70;99450.35;1673924;85;20393;-71
2021/03/03 12:26:08;;;;;;;;;;;;;;;10.76;53.84;99455.44;1673738;85;21219;-70
2021/03/03 12:28:36;;;;;;;;;;;;;;;10.73;53.90;99451.08;1673786;85;20156;-71
2021/03/03 12:31:06;;;;;;;;;;;;;;;10.69;53.89;99449.53;1673767;85;20135;-72
2021/03/03 12:33:35;;;;;;;;;;;;;;;10.66;54.35;99452.37;1673858;85;20156;-71
2021/03/03 12:36:07;;;;;;;;;;;;;;;10.62;54.77;99448.10;1673752;85;20171;-71
2021/03/03 12:38:36;;;;;;;;;;;;;;;10.62;54.55;99444.08;1673795;85;21908;-71
2021/03/03 12:41:03;;;;;;;;;;;;;;;10.58;54.26;99445.17;1673669;85;20143;-71
2021/03/03 12:43:33;;;;;;;;;;;;;;;10.58;54.17;99445.17;1673813;85;20120;-71
2021/03/03 12:46:05;;;;;;;;;;;;;;;10.57;54.48;99442.11;1673723;85;20172;-70
2021/03/03 12:48:33;;;;;;;;;;;;;;;10.52;54.12;99446.87;1673771;85;20140;-71
2021/03/03 12:51:01;;;;;;;;;;;;;;;10.53;54.87;99437.84;1673801;85;22067;-73
2021/03/03 12:53:31;;;;;;;;;;;;;;;10.51;54.49;99431.69;1673753;85;20420;-72
2021/03/03 12:55:58;;;;;;;;;;;;;;;10.51;54.68;99431.69;1673715;85;20504;-71
2021/03/03 12:58:26;;;;;;;;;;;;;;;10.49;54.73;99427.73;1673744;85;20159;-70
2021/03/03 13:00:57;;;;;;;;;;;;;;;10.47;54.71;99423.79;1673695;85;20155;-72
2021/03/03 13:03:24;;;;;;;;;;;;;;;10.47;54.64;99417.56;1673851;85;21327;-70
2021/03/03 13:05:56;;;;;;;;;;;;;;;10.48;54.97;99417.48;1673862;85;20143;-72
2021/03/03 13:08:24;;;;;;;;;;;;;;;10.45;54.96;99410.92;1673936;85;20186;-72